KMLS/MLS METAR and TAF weather

Enter ICAO airport designator
Station Type Date Time Source
KMLS METAR 2019/11/15 04:53 UTC NOAA

KMLS 150453Z AUTO 16006KT 10SM CLR 04/M01 A3005 RMK AO2 SLP197 T00391006


Station Type Date Time Source
KMLS Decoded METAR 2019/11/15 04:53 UTC NOAA

MILES CITY WILEY FIELD, MT, United States (KMLS) 46-26N 105-53W 801M
Nov 14, 2019 - 11:53 PM EST / 2019.11.15 0453 UTC
Wind: from the SSE (160 degrees) at 7 MPH (6 KT):0
Visibility: 10 mile(s):0
Sky conditions: clear
Temperature: 39.0 F (3.9 C)
Dew Point: 30.9 F (-0.6 C)
Relative Humidity: 72%
Pressure (altimeter): 30.05 in. Hg (1017 hPa)
ob: KMLS 150453Z AUTO 16006KT 10SM CLR 04/M01 A3005 RMK AO2 SLP197 T00391006
cycle: 5

Station Type Date Time Source
KMLS TAF 2019/11/15 06:28 UTC NOAA

TAF KMLS 150526Z 1506/1606 15007KT P6SM SCT200
FM150900 15007KT P6SM VCFG FEW002 SCT200
FM151600 16007KT P6SM BKN200

Example: see airport list